Latest Coastal Weather Observations for Onslow Airport

IDW60701

Issued at 7:53 am WST Friday 9 December 2016 (issued every 10 minutes, with the page automatically refreshed every 10 minutes)

About coastal observations | Map of coastal stations | Coastal observations for WA | Marine services | Other Formats
Station Details ID: 005017 Name: ONSLOW AIRPORT Lat: -21.67 Lon: 115.11 Height: 10.5 m
Data from the previous 72 hours. | See also: Recent months at Onslow Airport
Date/Time
WST
Temp
°C
Wind Pressure Rain since
9am
mm
Weather Cloud Vis
km
Sea
Height
m
Swell
Dir  Spd
kts
Gust
kts
hPa Trend Height
m
Period
s
Dir
09/07:30am 28.5 W 5 6 1010.2 - 0.0 - - - - - - -
09/07:00am 28.2 W 4 5 1010.0 - 0.0 - - - - - - -
09/06:30am 27.9 WNW 1 4 1009.8 - 0.0 - - - - - - -
09/06:00am 27.3 WNW 3 4 1009.6 - 0.0 - - - - - - -
09/05:30am 27.1 W 3 5 1009.2 - 0.0 - - - - - - -
09/05:00am 27.4 SSE 1 3 1008.9 - 0.0 - - - - - - -
09/04:30am 27.5 SSE 4 4 1008.8 - 0.0 - - - - - - -
09/04:00am 27.1 SSE 5 6 1008.9 - 0.0 - - - - - - -
09/03:30am 27.6 SSE 6 7 1008.9 - 0.0 - - - - - - -
09/03:00am 27.8 SSE 7 9 1009.2 - 0.0 - - - - - - -
09/02:30am 27.9 SSE 8 10 1009.4 - 0.0 - - - - - - -
09/02:00am 28.0 SSE 7 9 1009.6 - 0.0 - - - - - - -
09/01:30am 28.4 SSE 9 12 1009.8 - 0.0 - - - - - - -
09/01:00am 28.1 S 9 11 1009.7 - 0.0 - - - - - - -
09/12:30am 27.9 SSW 10 12 1009.8 - 0.0 - - - - - - -
09/12:00am 27.7 SW 8 11 1009.9 - 0.0 - - - - - - -
 
Date/Time
WST
Temp
°C
Wind Pressure Rain since
9am
mm
Weather Cloud Vis
km
Sea
Height
m
Swell
Dir  Spd
kts
Gust
kts
hPa Trend Height
m
Period
s
Dir
08/11:30pm 27.4 WSW 9 11 1010.0 - 0.0 - - - - - - -
08/11:00pm 27.4 WSW 10 14 1010.3 - 0.0 - - - - - - -
08/10:30pm 27.5 WSW 10 13 1010.3 - 0.0 - - - - - - -
08/10:00pm 27.5 W 10 14 1010.2 - 0.0 - - - - - - -
08/09:30pm 27.5 W 10 12 1010.1 - 0.0 - - - - - - -
08/09:00pm 27.6 W 10 13 1010.0 - 0.0 - - - - - - -
08/08:30pm 27.8 W 9 12 1009.8 - 0.0 - - - - - - -
08/08:00pm 27.9 W 11 14 1009.5 - 0.0 - - - - - - -
08/07:30pm 28.0 W 11 15 1009.2 - 0.0 - - - - - - -
08/07:00pm 28.2 W 12 16 1008.7 - 0.0 - - - - - - -
08/06:30pm 29.0 WNW 13 16 1008.2 - 0.0 - - - - - - -
08/06:00pm 29.8 WNW 15 19 1007.6 - 0.0 - - - - - - -
08/05:30pm 30.5 NW 15 19 1007.2 - 0.0 - - - - - - -
08/05:00pm 31.0 NW 16 19 1006.9 - 0.0 - - - - - - -
08/04:30pm 32.5 NW 14 18 1006.7 - 0.0 - - - - - - -
08/04:00pm 32.7 WNW 14 17 1006.9 - 0.0 - - - - - - -
08/03:30pm 33.1 NW 15 18 1007.1 - 0.0 - - - - - - -
08/03:00pm 33.8 NW 13 16 1007.3 - 0.0 - - - - - - -
08/02:30pm 33.3 NW 13 16 1007.5 - 0.0 - - - - - - -
08/02:00pm 34.0 NW 13 15 1007.6 - 0.0 - - - - - - -
08/01:30pm 34.0 NW 12 15 1008.0 - 0.0 - - - - - - -
08/01:00pm 34.1 NNW 12 15 1008.1 - 0.0 - - - - - - -
08/12:30pm 35.5 NNW 10 14 1008.4 - 0.0 - - - - - - -
08/12:00pm 35.0 NNW 9 12 1008.8 - 0.0 - - - - - - -
08/11:30am 35.7 N 8 11 1009.2 - 0.0 - - - - - - -
08/11:00am 34.8 N 10 13 1009.3 - 0.0 - - - - - - -
08/10:30am 34.1 NNE 5 10 1009.5 - 0.0 - - - - - - -
08/10:00am 33.4 E 4 7 1009.6 - 0.0 - - - - - - -
08/09:30am 33.5 NE 4 7 1010.0 - 0.0 - - - - - - -
08/09:00am 31.5 ENE 4 6 1010.2 - 0.0 - - - - - - -
08/08:30am 31.5 E 5 7 1010.1 - 0.0 - - - - - - -
08/08:00am 30.3 ENE 5 7 1010.1 - 0.0 - - - - - - -
08/07:30am 29.3 ESE 3 5 1009.9 - 0.0 - - - - - - -
08/07:00am 28.4 ESE 5 5 1010.2 - 0.0 - - - - - - -
08/06:30am 27.4 E 5 5 1010.3 - 0.0 - - - - - - -
08/06:00am 25.9 E 4 5 1010.1 - 0.0 - - - - - - -
08/05:30am 25.0 E 5 5 1009.9 - 0.0 - - - - - - -
08/05:00am 25.0 E 6 7 1009.6 - 0.0 - - - - - - -
08/04:30am 25.0 ESE 7 8 1009.4 - 0.0 - - - - - - -
08/04:00am 25.2 SE 6 7 1009.2 - 0.0 - - - - - - -
08/03:30am 25.1 SSE 6 7 1008.8 - 0.0 - - - - - - -
08/03:00am 25.2 SW 5 6 1008.7 - 0.0 - - - - - - -
08/02:30am 25.5 WSW 5 7 1008.4 - 0.0 - - - - - - -
08/02:00am 25.9 W 8 10 1008.4 - 0.0 - - - - - - -
08/01:30am 25.8 W 8 10 1008.7 - 0.0 - - - - - - -
08/01:00am 25.7 W 9 11 1008.9 - 0.0 - - - - - - -
08/12:30am 25.7 WNW 7 9 1009.6 - 0.0 - - - - - - -
08/12:00am 25.7 WNW 8 11 1010.1 - 0.0 - - - - - - -
 
Date/Time
WST
Temp
°C
Wind Pressure Rain since
9am
mm
Weather Cloud Vis
km
Sea
Height
m
Swell
Dir  Spd
kts
Gust
kts
hPa Trend Height
m
Period
s
Dir
07/11:30pm 25.9 WNW 8 10 1010.6 - 0.0 - - - - - - -
07/11:00pm 26.8 NW 7 9 1011.1 - 0.0 - - - - - - -
07/10:30pm 27.0 N 8 10 1011.5 - 0.0 - - - - - - -
07/10:00pm 27.2 N 9 12 1011.7 - 0.0 - - - - - - -
07/09:30pm 27.1 NNE 9 11 1011.5 - 0.0 - - - - - - -
07/09:00pm 26.8 N 6 8 1011.3 - 0.0 - - - - - - -
07/08:30pm 26.9 NW 8 10 1010.4 - 0.0 - - - - - - -
07/08:00pm 27.0 NW 8 9 1010.1 - 0.0 - - - - - - -
07/07:30pm 27.3 NNW 8 13 1010.0 - 0.0 - - - - - - -
07/07:00pm 27.4 NNW 12 14 1008.7 - 0.0 - - - - - - -
07/06:30pm 27.8 NNW 15 18 1008.2 - 0.0 - - - - - - -
07/06:00pm 28.9 NNW 14 18 1007.9 - 0.0 - - - - - - -
07/05:30pm 29.2 NNW 16 20 1007.2 - 0.0 - - - - - - -
07/05:00pm 30.2 NNW 15 17 1007.5 - 0.0 - - - - - - -
07/04:30pm 31.0 NNW 14 17 1007.8 - 0.0 - - - - - - -
07/04:00pm 32.1 NNW 13 16 1007.9 - 0.0 - - - - - - -
07/03:30pm 31.8 NNW 13 16 1008.0 - 0.0 - - - - - - -
07/03:00pm 32.8 NNW 12 15 1008.2 - 0.0 - - - - - - -
07/02:30pm 33.6 NNW 12 15 1008.5 - 0.0 - - - - - - -
07/02:00pm 33.5 NNW 11 12 1008.9 - 0.0 - - - - - - -
07/01:30pm 33.6 NW 11 14 1009.2 - 0.0 - - - - - - -
07/01:00pm 32.8 NNW 11 14 1009.5 - 0.0 - - - - - - -
07/12:30pm 33.0 NW 9 12 1009.8 - 0.0 - - - - - - -
07/12:00pm 32.3 NW 10 13 1010.2 - 0.0 - - - - - - -
07/11:30am 33.1 NNW 8 11 1010.4 - 0.0 - - - - - - -
07/11:00am 32.7 N 9 14 1010.7 - 0.0 - - - - - - -
07/10:30am 31.7 NNE 8 12 1010.9 - 0.0 - - - - - - -
07/10:00am 31.6 N 7 11 1010.9 - 0.0 - - - - - - -
07/09:30am 31.1 NNE 8 11 1011.0 - 0.0 - - - - - - -
07/09:00am 30.8 NNE 7 10 1011.1 - 0.0 - - - - - - -
07/08:30am 29.5 N 4 6 1011.2 - 0.0 - - - - - - -
07/08:00am 27.8 WNW 2 4 1011.0 - 0.0 - - - - - - -
07/07:30am 26.6 W 3 5 1011.0 - 0.0 - - - - - - -
07/07:00am 25.6 W 1 5 1010.9 - 0.0 - - - - - - -
07/06:30am 24.1 WNW 3 4 1010.5 - 0.0 - - - - - - -
07/06:00am 23.0 CALM 0 0 1010.3 - 0.0 - - - - - - -
07/05:30am 22.8 WNW 3 4 1010.1 - 0.0 - - - - - - -
07/05:00am 23.0 WNW 3 4 1009.7 - 0.0 - - - - - - -
07/04:30am 23.0 WNW 5 6 1009.5 - 0.0 - - - - - - -
07/04:00am 22.9 WNW 5 6 1009.5 - 0.0 - - - - - - -
07/03:30am 23.0 NW 5 6 1009.2 - 0.0 - - - - - - -
07/03:00am 23.7 NW 5 7 1009.1 - 0.0 - - - - - - -
07/02:30am 23.9 NNW 7 9 1009.1 - 0.0 - - - - - - -
07/02:00am 23.9 NNW 6 7 1009.3 - 0.0 - - - - - - -
07/01:30am 24.1 NW 6 8 1009.5 - 0.0 - - - - - - -
07/01:00am 24.2 N 8 10 1009.5 - 0.0 - - - - - - -
07/12:30am 24.7 N 11 13 1009.8 - 0.0 - - - - - - -
07/12:00am 24.1 N 7 8 1010.1 - 0.0 - - - - - - -
 
Date/Time
WST
Temp
°C
Wind Pressure Rain since
9am
mm
Weather Cloud Vis
km
Sea
Height
m
Swell
Dir  Spd
kts
Gust
kts
hPa Trend Height
m
Period
s
Dir
06/11:30pm 24.2 N 7 9 1010.4 - 0.0 - - - - - - -
06/11:00pm 24.5 N 6 8 1010.6 - 0.0 - - - - - - -
06/10:30pm 24.4 N 7 8 1010.7 - 0.0 - - - - - - -
06/10:00pm 24.6 N 7 9 1010.7 - 0.0 - - - - - - -
06/09:30pm 24.4 N 6 7 1010.2 - 0.0 - - - - - - -
06/09:00pm 24.9 NNW 6 7 1010.0 - 0.0 - - - - - - -
06/08:30pm 25.2 N 8 10 1010.0 - 0.0 - - - - - - -
06/08:00pm 25.4 N 8 11 1009.7 - 0.0 - - - - - - -
06/07:30pm 25.7 NNW 8 9 1009.1 - 0.0 - - - - - - -
06/07:00pm 26.0 NW 9 12 1008.1 - 0.0 - - - - - - -
06/06:30pm 26.8 WNW 11 13 1007.7 - 0.0 - - - - - - -
06/06:00pm 27.4 WNW 13 16 1007.1 - 0.0 - - - - - - -
06/05:30pm 27.6 WNW 15 17 1006.7 - 0.0 - - - - - - -
06/05:00pm 28.1 WNW 15 20 1006.6 - 0.0 - - - - - - -
06/04:30pm 28.7 WNW 17 21 1006.6 - 0.0 - - - - - - -
06/04:00pm 29.1 WNW 17 22 1006.7 - 0.0 - - - - - - -
06/03:30pm 30.1 WNW 18 22 1006.8 - 0.0 - - - - - - -
06/03:00pm 30.3 NW 17 23 1007.1 - 0.0 - - - - - - -
06/02:30pm 29.9 NW 17 20 1007.3 - 0.0 - - - - - - -
06/02:00pm 30.1 NW 15 19 1007.5 - 0.0 - - - - - - -
06/01:30pm 32.5 NW 13 17 1007.8 - 0.0 - - - - - - -
06/01:00pm 31.9 NW 15 17 1008.2 - 0.0 - - - - - - -
06/12:30pm 32.7 NNW 14 17 1008.5 - 0.0 - - - - - - -
06/12:00pm 32.7 NNW 12 15 1008.8 - 0.0 - - - - - - -
06/11:30am 32.3 NNW 11 13 1009.0 - 0.0 - - - - - - -
06/11:00am 33.7 N 8 15 1009.1 - 0.0 - - - - - - -
06/10:30am 36.6 ENE 8 11 1009.3 - 0.0 - - - - - - -
06/10:00am 34.7 SE 7 11 1009.3 - 0.0 - - - - - - -
06/09:30am 33.2 ESE 8 10 1009.6 - 0.0 - - - - - - -
06/09:00am 31.8 ESE 7 10 1009.7 - 0.0 - - - - - - -
06/08:30am 30.1 SSE 9 13 1009.8 - 0.0 - - - - - - -
06/08:00am 28.3 S 10 12 1010.0 - 0.0 - - - - - - -

Other Formats:

Comma delimited format used in spreadsheet applications
http://www.bom.gov.au/fwo/IDW60701/IDW60701.95305.axf

JavaScript Object Notation format (JSON) in row-major order
http://www.bom.gov.au/fwo/IDW60701/IDW60701.95305.json